Terminal Aerodrome Forecast
Issued by NWS

Home | Current Version | Previous Version | Text Only | Print | Product List | Glossary On
Versions: 1 2 3 4 5 6 7 8 9 10 11 12
000
FTAK31 PAJN 190540
TAFAJN
TAF
PAJN 190540Z 1906/2006 11020G30KT P6SM -RA FEW015 BKN045 OVC070
      WS020/14030KT
      TEMPO 1906/1908 5SM -RA BR FEW015 BKN025 OVC050
     FM190800 11020G30KT 5SM -RA BR FEW015 BKN025 OVC050
      WS020/14030KT
     FM191200 11025G35KT 4SM -RA BR OVC015 WS020/14040KT
     FM192000 13025G35KT 5SM -RA BR OVC025
     FM200000 13015G25KT 6SM -RA BR SCT025 OVC035=

USA.gov is the U.S. government's official web portal to all federal, state and local government web resources and services.